sensor_id;sensor_type;location;lat;lon;timestamp;P1;durP1;ratioP1;P2;durP2;ratioP2
1224;SDS011;602;48.000;7.840;2022-10-17T00:00:43;4.40;;;1.00;;
1224;SDS011;602;48.000;7.840;2022-10-17T00:03:10;0.80;;;0.80;;
1224;SDS011;602;48.000;7.840;2022-10-17T00:05:38;1.37;;;1.27;;
1224;SDS011;602;48.000;7.840;2022-10-17T00:08:06;2.30;;;1.60;;
1224;SDS011;602;48.000;7.840;2022-10-17T00:10:33;1.20;;;1.10;;
1224;SDS011;602;48.000;7.840;2022-10-17T00:13:01;4.53;;;1.50;;
1224;SDS011;602;48.000;7.840;2022-10-17T00:15:28;1.20;;;1.07;;
1224;SDS011;602;48.000;7.840;2022-10-17T00:17:55;0.90;;;0.90;;
1224;SDS011;602;48.000;7.840;2022-10-17T00:20:22;1.27;;;1.17;;
1224;SDS011;602;48.000;7.840;2022-10-17T00:22:49;1.33;;;1.13;;
1224;SDS011;602;48.000;7.840;2022-10-17T00:25:16;1.40;;;0.90;;
1224;SDS011;602;48.000;7.840;2022-10-17T00:27:43;0.90;;;0.90;;
1224;SDS011;602;48.000;7.840;2022-10-17T00:30:12;1.27;;;1.17;;
1224;SDS011;602;48.000;7.840;2022-10-17T00:32:40;1.17;;;1.07;;
1224;SDS011;602;48.000;7.840;2022-10-17T00:35:07;1.90;;;1.63;;
1224;SDS011;602;48.000;7.840;2022-10-17T00:37:34;1.17;;;0.83;;
1224;SDS011;602;48.000;7.840;2022-10-17T00:40:01;1.03;;;0.93;;
1224;SDS011;602;48.000;7.840;2022-10-17T00:42:29;1.63;;;1.03;;
1224;SDS011;602;48.000;7.840;2022-10-17T00:44:58;1.20;;;1.10;;
1224;SDS011;602;48.000;7.840;2022-10-17T00:47:29;1.60;;;1.20;;
1224;SDS011;602;48.000;7.840;2022-10-17T00:49:57;20.57;;;1.33;;
1224;SDS011;602;48.000;7.840;2022-10-17T00:52:25;3.40;;;1.20;;
1224;SDS011;602;48.000;7.840;2022-10-17T00:54:53;1.70;;;1.17;;
1224;SDS011;602;48.000;7.840;2022-10-17T00:57:23;0.80;;;0.80;;
1224;SDS011;602;48.000;7.840;2022-10-17T00:59:52;1.70;;;1.40;;
1224;SDS011;602;48.000;7.840;2022-10-17T01:02:22;2.00;;;1.53;;
1224;SDS011;602;48.000;7.840;2022-10-17T01:04:51;3.63;;;1.67;;
1224;SDS011;602;48.000;7.840;2022-10-17T01:07:20;1.10;;;1.10;;
1224;SDS011;602;48.000;7.840;2022-10-17T01:09:47;2.73;;;2.00;;
1224;SDS011;602;48.000;7.840;2022-10-17T01:12:16;1.33;;;1.27;;
1224;SDS011;602;48.000;7.840;2022-10-17T01:14:49;1.80;;;1.70;;
1224;SDS011;602;48.000;7.840;2022-10-17T01:17:29;1.77;;;1.60;;
1224;SDS011;602;48.000;7.840;2022-10-17T01:23:17;0.90;;;0.90;;
1224;SDS011;602;48.000;7.840;2022-10-17T01:25:54;1.33;;;1.23;;
1224;SDS011;602;48.000;7.840;2022-10-17T01:28:44;1.67;;;1.57;;
1224;SDS011;602;48.000;7.840;2022-10-17T01:31:28;1.90;;;1.80;;
1224;SDS011;602;48.000;7.840;2022-10-17T01:34:01;1.27;;;1.17;;
1224;SDS011;602;48.000;7.840;2022-10-17T01:36:34;1.43;;;1.33;;
1224;SDS011;602;48.000;7.840;2022-10-17T01:39:09;1.97;;;1.37;;
1224;SDS011;602;48.000;7.840;2022-10-17T01:41:41;1.33;;;1.23;;
1224;SDS011;602;48.000;7.840;2022-10-17T01:44:13;1.93;;;1.50;;
1224;SDS011;602;48.000;7.840;2022-10-17T01:46:45;1.63;;;1.50;;
1224;SDS011;602;48.000;7.840;2022-10-17T01:49:16;1.27;;;1.20;;
1224;SDS011;602;48.000;7.840;2022-10-17T01:51:47;1.07;;;1.07;;
1224;SDS011;602;48.000;7.840;2022-10-17T01:54:17;1.50;;;1.40;;
1224;SDS011;602;48.000;7.840;2022-10-17T01:56:48;1.43;;;1.33;;
1224;SDS011;602;48.000;7.840;2022-10-17T01:59:19;1.63;;;1.27;;
1224;SDS011;602;48.000;7.840;2022-10-17T02:01:51;1.53;;;1.27;;
1224;SDS011;602;48.000;7.840;2022-10-17T02:04:20;0.93;;;0.90;;
1224;SDS011;602;48.000;7.840;2022-10-17T02:06:47;1.60;;;0.90;;
1224;SDS011;602;48.000;7.840;2022-10-17T02:09:18;1.33;;;1.23;;
1224;SDS011;602;48.000;7.840;2022-10-17T02:11:49;1.30;;;1.20;;
1224;SDS011;602;48.000;7.840;2022-10-17T02:14:28;3.23;;;1.07;;
1224;SDS011;602;48.000;7.840;2022-10-17T02:17:04;1.37;;;1.00;;
1224;SDS011;602;48.000;7.840;2022-10-17T02:19:42;0.90;;;0.90;;
1224;SDS011;602;48.000;7.840;2022-10-17T02:22:17;1.20;;;1.10;;
1224;SDS011;602;48.000;7.840;2022-10-17T02:24:54;1.47;;;1.37;;
1224;SDS011;602;48.000;7.840;2022-10-17T02:27:31;2.13;;;1.70;;
1224;SDS011;602;48.000;7.840;2022-10-17T02:30:07;1.57;;;1.43;;
1224;SDS011;602;48.000;7.840;2022-10-17T02:32:39;2.30;;;1.30;;
1224;SDS011;602;48.000;7.840;2022-10-17T02:35:12;1.53;;;1.43;;
1224;SDS011;602;48.000;7.840;2022-10-17T02:37:40;1.20;;;1.10;;
1224;SDS011;602;48.000;7.840;2022-10-17T02:40:09;1.60;;;1.10;;
1224;SDS011;602;48.000;7.840;2022-10-17T02:42:38;1.10;;;1.10;;
1224;SDS011;602;48.000;7.840;2022-10-17T02:45:08;1.13;;;1.00;;
1224;SDS011;602;48.000;7.840;2022-10-17T02:47:36;0.97;;;0.83;;
1224;SDS011;602;48.000;7.840;2022-10-17T02:50:13;1.67;;;1.27;;
1224;SDS011;602;48.000;7.840;2022-10-17T02:52:42;1.70;;;1.53;;
1224;SDS011;602;48.000;7.840;2022-10-17T02:55:15;1.67;;;1.30;;
1224;SDS011;602;48.000;7.840;2022-10-17T02:57:43;2.00;;;1.90;;
1224;SDS011;602;48.000;7.840;2022-10-17T03:00:14;1.63;;;1.50;;
1224;SDS011;602;48.000;7.840;2022-10-17T03:02:45;1.37;;;1.20;;
1224;SDS011;602;48.000;7.840;2022-10-17T03:05:15;2.93;;;1.70;;
1224;SDS011;602;48.000;7.840;2022-10-17T03:07:44;1.50;;;1.40;;
1224;SDS011;602;48.000;7.840;2022-10-17T03:10:11;1.57;;;1.40;;
1224;SDS011;602;48.000;7.840;2022-10-17T03:12:38;1.30;;;1.20;;
1224;SDS011;602;48.000;7.840;2022-10-17T03:15:05;2.17;;;1.97;;
1224;SDS011;602;48.000;7.840;2022-10-17T03:17:33;1.30;;;1.20;;
1224;SDS011;602;48.000;7.840;2022-10-17T03:20:02;1.27;;;1.17;;
1224;SDS011;602;48.000;7.840;2022-10-17T03:22:30;1.27;;;1.17;;
1224;SDS011;602;48.000;7.840;2022-10-17T03:24:57;2.20;;;1.90;;
1224;SDS011;602;48.000;7.840;2022-10-17T03:27:24;1.20;;;1.10;;
1224;SDS011;602;48.000;7.840;2022-10-17T03:29:50;1.60;;;1.50;;
1224;SDS011;602;48.000;7.840;2022-10-17T03:32:17;1.40;;;1.30;;
1224;SDS011;602;48.000;7.840;2022-10-17T03:34:44;2.17;;;1.37;;
1224;SDS011;602;48.000;7.840;2022-10-17T03:37:12;1.10;;;1.00;;
1224;SDS011;602;48.000;7.840;2022-10-17T03:39:39;1.53;;;1.30;;
1224;SDS011;602;48.000;7.840;2022-10-17T03:42:06;1.30;;;1.20;;
1224;SDS011;602;48.000;7.840;2022-10-17T03:44:32;1.13;;;0.90;;
1224;SDS011;602;48.000;7.840;2022-10-17T03:46:59;1.20;;;1.10;;
1224;SDS011;602;48.000;7.840;2022-10-17T03:49:26;1.50;;;1.23;;
1224;SDS011;602;48.000;7.840;2022-10-17T03:51:53;2.13;;;1.33;;
1224;SDS011;602;48.000;7.840;2022-10-17T03:54:21;2.33;;;1.50;;
1224;SDS011;602;48.000;7.840;2022-10-17T03:56:48;1.40;;;1.30;;
1224;SDS011;602;48.000;7.840;2022-10-17T03:59:15;1.07;;;0.93;;
1224;SDS011;602;48.000;7.840;2022-10-17T04:01:42;2.03;;;1.83;;
1224;SDS011;602;48.000;7.840;2022-10-17T04:04:09;1.60;;;1.47;;
1224;SDS011;602;48.000;7.840;2022-10-17T04:06:36;1.47;;;1.37;;
1224;SDS011;602;48.000;7.840;2022-10-17T04:09:03;1.10;;;1.00;;
1224;SDS011;602;48.000;7.840;2022-10-17T04:11:33;2.20;;;1.60;;
1224;SDS011;602;48.000;7.840;2022-10-17T04:13:59;1.57;;;1.37;;
1224;SDS011;602;48.000;7.840;2022-10-17T04:16:26;1.63;;;1.43;;
1224;SDS011;602;48.000;7.840;2022-10-17T04:18:54;1.67;;;1.57;;
1224;SDS011;602;48.000;7.840;2022-10-17T04:21:22;1.10;;;1.00;;
1224;SDS011;602;48.000;7.840;2022-10-17T04:23:53;16.63;;;1.60;;
1224;SDS011;602;48.000;7.840;2022-10-17T04:26:20;1.60;;;1.50;;
1224;SDS011;602;48.000;7.840;2022-10-17T04:28:49;1.50;;;1.40;;
1224;SDS011;602;48.000;7.840;2022-10-17T04:31:16;2.80;;;1.50;;
1224;SDS011;602;48.000;7.840;2022-10-17T04:33:45;2.63;;;2.03;;
1224;SDS011;602;48.000;7.840;2022-10-17T04:36:14;1.40;;;1.23;;
1224;SDS011;602;48.000;7.840;2022-10-17T04:38:42;1.67;;;1.57;;
1224;SDS011;602;48.000;7.840;2022-10-17T04:41:10;1.53;;;1.43;;
1224;SDS011;602;48.000;7.840;2022-10-17T04:43:38;1.73;;;1.50;;
1224;SDS011;602;48.000;7.840;2022-10-17T04:46:07;2.40;;;1.77;;
1224;SDS011;602;48.000;7.840;2022-10-17T04:48:36;2.77;;;1.97;;
1224;SDS011;602;48.000;7.840;2022-10-17T04:51:04;2.87;;;1.63;;
1224;SDS011;602;48.000;7.840;2022-10-17T04:53:33;1.60;;;1.50;;
1224;SDS011;602;48.000;7.840;2022-10-17T04:56:06;1.67;;;1.57;;
1224;SDS011;602;48.000;7.840;2022-10-17T04:58:33;2.17;;;2.00;;
1224;SDS011;602;48.000;7.840;2022-10-17T05:01:03;2.93;;;2.50;;
1224;SDS011;602;48.000;7.840;2022-10-17T05:03:32;2.53;;;2.33;;
1224;SDS011;602;48.000;7.840;2022-10-17T05:06:02;7.43;;;2.40;;
1224;SDS011;602;48.000;7.840;2022-10-17T05:08:30;1.33;;;1.23;;
1224;SDS011;602;48.000;7.840;2022-10-17T05:10:57;1.77;;;1.67;;
1224;SDS011;602;48.000;7.840;2022-10-17T05:13:24;2.60;;;1.87;;
1224;SDS011;602;48.000;7.840;2022-10-17T05:15:51;2.50;;;2.20;;
1224;SDS011;602;48.000;7.840;2022-10-17T05:18:18;2.80;;;1.93;;
1224;SDS011;602;48.000;7.840;2022-10-17T05:20:46;1.93;;;1.73;;
1224;SDS011;602;48.000;7.840;2022-10-17T05:23:12;1.73;;;1.33;;
1224;SDS011;602;48.000;7.840;2022-10-17T05:25:39;1.60;;;1.50;;
1224;SDS011;602;48.000;7.840;2022-10-17T05:28:06;2.40;;;1.83;;
1224;SDS011;602;48.000;7.840;2022-10-17T05:30:33;1.07;;;0.97;;
1224;SDS011;602;48.000;7.840;2022-10-17T05:33:00;1.70;;;1.60;;
1224;SDS011;602;48.000;7.840;2022-10-17T05:35:27;1.60;;;1.50;;
1224;SDS011;602;48.000;7.840;2022-10-17T05:37:55;2.10;;;1.93;;
1224;SDS011;602;48.000;7.840;2022-10-17T05:40:24;2.07;;;1.87;;
1224;SDS011;602;48.000;7.840;2022-10-17T05:42:50;3.70;;;1.43;;
1224;SDS011;602;48.000;7.840;2022-10-17T05:45:18;1.30;;;1.20;;
1224;SDS011;602;48.000;7.840;2022-10-17T05:47:44;1.60;;;1.07;;
1224;SDS011;602;48.000;7.840;2022-10-17T05:50:11;1.70;;;1.60;;
1224;SDS011;602;48.000;7.840;2022-10-17T05:52:38;2.57;;;1.90;;
1224;SDS011;602;48.000;7.840;2022-10-17T05:55:07;2.40;;;1.57;;
1224;SDS011;602;48.000;7.840;2022-10-17T05:57:35;1.80;;;1.70;;
1224;SDS011;602;48.000;7.840;2022-10-17T06:00:02;2.97;;;2.40;;
1224;SDS011;602;48.000;7.840;2022-10-17T06:02:30;1.63;;;1.53;;
1224;SDS011;602;48.000;7.840;2022-10-17T06:04:57;2.00;;;1.63;;
1224;SDS011;602;48.000;7.840;2022-10-17T06:07:24;2.20;;;1.97;;
1224;SDS011;602;48.000;7.840;2022-10-17T06:09:50;4.00;;;1.90;;
1224;SDS011;602;48.000;7.840;2022-10-17T06:12:18;2.30;;;1.70;;
1224;SDS011;602;48.000;7.840;2022-10-17T06:14:45;3.70;;;2.43;;
1224;SDS011;602;48.000;7.840;2022-10-17T06:17:12;2.40;;;2.20;;
1224;SDS011;602;48.000;7.840;2022-10-17T06:19:39;6.43;;;4.60;;
1224;SDS011;602;48.000;7.840;2022-10-17T06:22:06;3.33;;;3.03;;
1224;SDS011;602;48.000;7.840;2022-10-17T06:24:33;2.83;;;2.30;;
1224;SDS011;602;48.000;7.840;2022-10-17T06:27:02;1.40;;;1.30;;
1224;SDS011;602;48.000;7.840;2022-10-17T06:29:30;2.30;;;2.10;;
1224;SDS011;602;48.000;7.840;2022-10-17T06:31:57;1.83;;;1.67;;
1224;SDS011;602;48.000;7.840;2022-10-17T06:34:24;1.33;;;1.23;;
1224;SDS011;602;48.000;7.840;2022-10-17T06:36:51;3.13;;;2.37;;
1224;SDS011;602;48.000;7.840;2022-10-17T06:39:18;6.30;;;2.90;;
1224;SDS011;602;48.000;7.840;2022-10-17T06:41:45;4.03;;;2.70;;
1224;SDS011;602;48.000;7.840;2022-10-17T06:44:12;2.30;;;1.97;;
1224;SDS011;602;48.000;7.840;2022-10-17T06:46:41;6.50;;;2.70;;
1224;SDS011;602;48.000;7.840;2022-10-17T06:49:08;2.20;;;2.10;;
1224;SDS011;602;48.000;7.840;2022-10-17T06:51:36;7.40;;;2.13;;
1224;SDS011;602;48.000;7.840;2022-10-17T06:54:03;2.80;;;2.50;;
1224;SDS011;602;48.000;7.840;2022-10-17T06:56:29;1.97;;;1.87;;
1224;SDS011;602;48.000;7.840;2022-10-17T06:58:56;2.53;;;2.33;;
1224;SDS011;602;48.000;7.840;2022-10-17T07:01:23;4.20;;;2.30;;
1224;SDS011;602;48.000;7.840;2022-10-17T07:03:52;3.90;;;2.30;;
1224;SDS011;602;48.000;7.840;2022-10-17T07:06:18;2.33;;;1.93;;
1224;SDS011;602;48.000;7.840;2022-10-17T07:08:48;2.67;;;1.97;;
1224;SDS011;602;48.000;7.840;2022-10-17T07:11:16;1.90;;;1.67;;
1224;SDS011;602;48.000;7.840;2022-10-17T07:13:44;1.97;;;1.60;;
1224;SDS011;602;48.000;7.840;2022-10-17T07:16:11;14.10;;;2.73;;
1224;SDS011;602;48.000;7.840;2022-10-17T07:18:39;3.30;;;2.33;;
1224;SDS011;602;48.000;7.840;2022-10-17T07:21:08;2.33;;;1.97;;
1224;SDS011;602;48.000;7.840;2022-10-17T07:23:35;2.43;;;1.93;;
1224;SDS011;602;48.000;7.840;2022-10-17T07:26:04;2.63;;;2.30;;
1224;SDS011;602;48.000;7.840;2022-10-17T07:28:33;3.10;;;1.73;;
1224;SDS011;602;48.000;7.840;2022-10-17T07:31:03;2.70;;;1.87;;
1224;SDS011;602;48.000;7.840;2022-10-17T07:33:31;1.40;;;1.30;;
1224;SDS011;602;48.000;7.840;2022-10-17T07:35:58;2.90;;;2.23;;
1224;SDS011;602;48.000;7.840;2022-10-17T07:38:27;3.07;;;2.37;;
1224;SDS011;602;48.000;7.840;2022-10-17T07:40:54;1.80;;;1.70;;
1224;SDS011;602;48.000;7.840;2022-10-17T07:43:21;2.50;;;2.23;;
1224;SDS011;602;48.000;7.840;2022-10-17T07:45:49;6.30;;;2.77;;
1224;SDS011;602;48.000;7.840;2022-10-17T07:48:16;3.60;;;2.77;;
1224;SDS011;602;48.000;7.840;2022-10-17T07:50:43;2.87;;;2.60;;
1224;SDS011;602;48.000;7.840;2022-10-17T07:53:10;3.30;;;3.00;;
1224;SDS011;602;48.000;7.840;2022-10-17T07:55:38;3.83;;;2.40;;
1224;SDS011;602;48.000;7.840;2022-10-17T07:58:06;2.27;;;2.07;;
1224;SDS011;602;48.000;7.840;2022-10-17T08:00:33;2.30;;;2.10;;
1224;SDS011;602;48.000;7.840;2022-10-17T08:03:00;2.50;;;2.37;;
1224;SDS011;602;48.000;7.840;2022-10-17T08:05:27;2.20;;;1.57;;
1224;SDS011;602;48.000;7.840;2022-10-17T08:07:55;2.57;;;2.03;;
1224;SDS011;602;48.000;7.840;2022-10-17T08:10:22;2.30;;;2.10;;
1224;SDS011;602;48.000;7.840;2022-10-17T08:12:53;2.43;;;2.23;;
1224;SDS011;602;48.000;7.840;2022-10-17T08:15:19;2.20;;;2.00;;
1224;SDS011;602;48.000;7.840;2022-10-17T08:17:46;3.10;;;2.40;;
1224;SDS011;602;48.000;7.840;2022-10-17T08:20:13;3.53;;;2.70;;
1224;SDS011;602;48.000;7.840;2022-10-17T08:22:40;2.60;;;2.40;;
1224;SDS011;602;48.000;7.840;2022-10-17T08:25:08;2.60;;;2.40;;
1224;SDS011;602;48.000;7.840;2022-10-17T08:27:35;8.40;;;2.37;;
1224;SDS011;602;48.000;7.840;2022-10-17T08:30:03;4.97;;;2.23;;
1224;SDS011;602;48.000;7.840;2022-10-17T08:32:31;2.57;;;2.20;;
1224;SDS011;602;48.000;7.840;2022-10-17T08:34:58;2.70;;;2.20;;
1224;SDS011;602;48.000;7.840;2022-10-17T08:37:25;2.30;;;2.10;;
1224;SDS011;602;48.000;7.840;2022-10-17T08:39:52;2.97;;;1.93;;
1224;SDS011;602;48.000;7.840;2022-10-17T08:42:40;2.23;;;1.90;;
1224;SDS011;602;48.000;7.840;2022-10-17T08:45:17;2.93;;;2.57;;
1224;SDS011;602;48.000;7.840;2022-10-17T08:47:51;2.40;;;2.00;;
1224;SDS011;602;48.000;7.840;2022-10-17T08:50:28;2.10;;;1.90;;
1224;SDS011;602;48.000;7.840;2022-10-17T08:53:01;2.30;;;2.10;;
1224;SDS011;602;48.000;7.840;2022-10-17T08:55:31;1.53;;;1.43;;
1224;SDS011;602;48.000;7.840;2022-10-17T08:58:01;2.03;;;1.77;;
1224;SDS011;602;48.000;7.840;2022-10-17T09:00:29;2.80;;;2.60;;
1224;SDS011;602;48.000;7.840;2022-10-17T09:03:02;2.47;;;2.07;;
1224;SDS011;602;48.000;7.840;2022-10-17T09:05:41;3.27;;;2.03;;
1224;SDS011;602;48.000;7.840;2022-10-17T09:08:16;2.20;;;2.10;;
1224;SDS011;602;48.000;7.840;2022-10-17T09:10:54;1.60;;;1.40;;
1224;SDS011;602;48.000;7.840;2022-10-17T09:13:30;1.80;;;1.70;;
1224;SDS011;602;48.000;7.840;2022-10-17T09:16:12;2.43;;;2.20;;
1224;SDS011;602;48.000;7.840;2022-10-17T09:18:52;2.17;;;2.07;;
1224;SDS011;602;48.000;7.840;2022-10-17T09:21:26;2.27;;;2.07;;
1224;SDS011;602;48.000;7.840;2022-10-17T09:24:03;1.77;;;1.67;;
1224;SDS011;602;48.000;7.840;2022-10-17T09:26:36;1.87;;;1.77;;
1224;SDS011;602;48.000;7.840;2022-10-17T09:29:09;2.23;;;1.97;;
1224;SDS011;602;48.000;7.840;2022-10-17T09:31:44;2.10;;;2.00;;
1224;SDS011;602;48.000;7.840;2022-10-17T09:34:15;1.90;;;1.80;;
1224;SDS011;602;48.000;7.840;2022-10-17T09:36:41;2.90;;;2.60;;
1224;SDS011;602;48.000;7.840;2022-10-17T09:39:10;1.60;;;1.50;;
1224;SDS011;602;48.000;7.840;2022-10-17T09:41:39;2.50;;;2.30;;
1224;SDS011;602;48.000;7.840;2022-10-17T09:44:13;1.53;;;1.43;;
1224;SDS011;602;48.000;7.840;2022-10-17T09:46:42;1.60;;;1.50;;
1224;SDS011;602;48.000;7.840;2022-10-17T09:49:18;1.80;;;1.70;;
1224;SDS011;602;48.000;7.840;2022-10-17T09:51:51;1.67;;;1.57;;
1224;SDS011;602;48.000;7.840;2022-10-17T09:54:19;1.83;;;1.73;;
1224;SDS011;602;48.000;7.840;2022-10-17T09:56:57;1.80;;;1.70;;
1224;SDS011;602;48.000;7.840;2022-10-17T09:59:29;2.13;;;1.93;;
1224;SDS011;602;48.000;7.840;2022-10-17T10:02:07;1.97;;;1.83;;
1224;SDS011;602;48.000;7.840;2022-10-17T10:04:55;1.80;;;1.70;;
1224;SDS011;602;48.000;7.840;2022-10-17T10:07:24;1.70;;;1.60;;
1224;SDS011;602;48.000;7.840;2022-10-17T10:09:53;2.27;;;2.07;;
1224;SDS011;602;48.000;7.840;2022-10-17T10:12:21;1.90;;;1.80;;
1224;SDS011;602;48.000;7.840;2022-10-17T10:14:50;2.20;;;1.47;;
1224;SDS011;602;48.000;7.840;2022-10-17T10:17:26;1.70;;;1.60;;
1224;SDS011;602;48.000;7.840;2022-10-17T10:19:58;1.87;;;1.77;;
1224;SDS011;602;48.000;7.840;2022-10-17T10:22:26;2.00;;;1.80;;
1224;SDS011;602;48.000;7.840;2022-10-17T10:25:06;3.93;;;2.17;;
1224;SDS011;602;48.000;7.840;2022-10-17T10:27:36;2.03;;;1.83;;
1224;SDS011;602;48.000;7.840;2022-10-17T10:30:06;4.67;;;1.90;;
1224;SDS011;602;48.000;7.840;2022-10-17T10:32:45;1.90;;;1.33;;
1224;SDS011;602;48.000;7.840;2022-10-17T10:35:17;1.47;;;1.37;;
1224;SDS011;602;48.000;7.840;2022-10-17T10:37:47;1.40;;;1.30;;
1224;SDS011;602;48.000;7.840;2022-10-17T10:40:17;1.30;;;1.20;;
1224;SDS011;602;48.000;7.840;2022-10-17T10:42:46;1.30;;;1.20;;
1224;SDS011;602;48.000;7.840;2022-10-17T10:45:15;1.20;;;1.20;;
1224;SDS011;602;48.000;7.840;2022-10-17T10:47:52;1.00;;;1.00;;
1224;SDS011;602;48.000;7.840;2022-10-17T10:50:24;1.63;;;1.53;;
1224;SDS011;602;48.000;7.840;2022-10-17T10:53:04;1.90;;;1.27;;
1224;SDS011;602;48.000;7.840;2022-10-17T10:55:41;1.37;;;1.27;;
1224;SDS011;602;48.000;7.840;2022-10-17T10:58:18;1.53;;;1.43;;
1224;SDS011;602;48.000;7.840;2022-10-17T11:00:51;1.07;;;1.07;;
1224;SDS011;602;48.000;7.840;2022-10-17T11:03:22;1.47;;;1.37;;
1224;SDS011;602;48.000;7.840;2022-10-17T11:05:55;1.70;;;1.60;;
1224;SDS011;602;48.000;7.840;2022-10-17T11:08:27;1.27;;;1.10;;
1224;SDS011;602;48.000;7.840;2022-10-17T11:11:02;3.03;;;1.53;;
1224;SDS011;602;48.000;7.840;2022-10-17T11:13:39;1.47;;;1.37;;
1224;SDS011;602;48.000;7.840;2022-10-17T11:16:22;1.30;;;1.10;;
1224;SDS011;602;48.000;7.840;2022-10-17T11:18:57;0.70;;;0.70;;
1224;SDS011;602;48.000;7.840;2022-10-17T11:21:31;1.40;;;1.30;;
1224;SDS011;602;48.000;7.840;2022-10-17T11:24:06;1.10;;;1.10;;
1224;SDS011;602;48.000;7.840;2022-10-17T11:26:39;1.10;;;1.00;;
1224;SDS011;602;48.000;7.840;2022-10-17T11:29:15;1.27;;;1.00;;
1224;SDS011;602;48.000;7.840;2022-10-17T11:31:44;1.00;;;1.00;;
1224;SDS011;602;48.000;7.840;2022-10-17T11:34:18;2.90;;;1.23;;
1224;SDS011;602;48.000;7.840;2022-10-17T11:36:50;1.17;;;1.07;;
1224;SDS011;602;48.000;7.840;2022-10-17T11:39:21;1.27;;;0.80;;
1224;SDS011;602;48.000;7.840;2022-10-17T11:41:56;0.83;;;0.83;;
1224;SDS011;602;48.000;7.840;2022-10-17T11:44:28;1.20;;;1.20;;
1224;SDS011;602;48.000;7.840;2022-10-17T11:47:00;0.77;;;0.77;;
1224;SDS011;602;48.000;7.840;2022-10-17T11:49:34;0.73;;;0.70;;
1224;SDS011;602;48.000;7.840;2022-10-17T11:52:07;1.20;;;0.87;;
1224;SDS011;602;48.000;7.840;2022-10-17T11:54:44;1.00;;;1.00;;
1224;SDS011;602;48.000;7.840;2022-10-17T11:57:20;1.10;;;1.10;;
1224;SDS011;602;48.000;7.840;2022-10-17T12:00:08;0.90;;;0.90;;
1224;SDS011;602;48.000;7.840;2022-10-17T12:02:58;1.10;;;1.00;;
1224;SDS011;602;48.000;7.840;2022-10-17T12:05:36;0.80;;;0.80;;
1224;SDS011;602;48.000;7.840;2022-10-17T12:08:08;0.90;;;0.90;;
1224;SDS011;602;48.000;7.840;2022-10-17T12:10:44;0.80;;;0.80;;
1224;SDS011;602;48.000;7.840;2022-10-17T12:16:37;1.30;;;1.20;;
1224;SDS011;602;48.000;7.840;2022-10-17T12:22:03;0.80;;;0.80;;
1224;SDS011;602;48.000;7.840;2022-10-17T12:24:39;0.57;;;0.57;;
1224;SDS011;602;48.000;7.840;2022-10-17T12:27:21;1.17;;;1.07;;
1224;SDS011;602;48.000;7.840;2022-10-17T12:29:58;1.10;;;0.80;;
1224;SDS011;602;48.000;7.840;2022-10-17T12:32:26;0.80;;;0.80;;
1224;SDS011;602;48.000;7.840;2022-10-17T12:34:53;1.00;;;0.90;;
1224;SDS011;602;48.000;7.840;2022-10-17T12:40:57;0.90;;;0.90;;
1224;SDS011;602;48.000;7.840;2022-10-17T12:52:16;0.87;;;0.87;;
1224;SDS011;602;48.000;7.840;2022-10-17T12:54:47;0.70;;;0.70;;
1224;SDS011;602;48.000;7.840;2022-10-17T12:57:22;1.10;;;1.00;;
1224;SDS011;602;48.000;7.840;2022-10-17T12:59:55;1.03;;;1.03;;
1224;SDS011;602;48.000;7.840;2022-10-17T13:02:23;1.00;;;1.00;;
1224;SDS011;602;48.000;7.840;2022-10-17T13:04:54;0.90;;;0.90;;
1224;SDS011;602;48.000;7.840;2022-10-17T13:07:31;0.90;;;0.90;;
1224;SDS011;602;48.000;7.840;2022-10-17T13:09:59;0.80;;;0.80;;
1224;SDS011;602;48.000;7.840;2022-10-17T13:12:31;0.80;;;0.80;;
1224;SDS011;602;48.000;7.840;2022-10-17T13:15:02;0.90;;;0.90;;
1224;SDS011;602;48.000;7.840;2022-10-17T13:17:33;1.07;;;0.97;;
1224;SDS011;602;48.000;7.840;2022-10-17T13:20:00;1.20;;;1.20;;
1224;SDS011;602;48.000;7.840;2022-10-17T13:22:29;1.40;;;1.30;;
1224;SDS011;602;48.000;7.840;2022-10-17T13:25:05;1.20;;;1.10;;
1224;SDS011;602;48.000;7.840;2022-10-17T13:27:35;2.77;;;1.03;;
1224;SDS011;602;48.000;7.840;2022-10-17T13:30:20;3.00;;;0.83;;
1224;SDS011;602;48.000;7.840;2022-10-17T13:32:49;0.80;;;0.80;;
1224;SDS011;602;48.000;7.840;2022-10-17T13:35:20;0.90;;;0.80;;
1224;SDS011;602;48.000;7.840;2022-10-17T13:37:49;0.83;;;0.83;;
1224;SDS011;602;48.000;7.840;2022-10-17T13:40:18;0.73;;;0.73;;
1224;SDS011;602;48.000;7.840;2022-10-17T13:42:48;0.83;;;0.83;;
1224;SDS011;602;48.000;7.840;2022-10-17T13:45:17;1.10;;;1.07;;
1224;SDS011;602;48.000;7.840;2022-10-17T13:47:47;1.73;;;0.87;;
1224;SDS011;602;48.000;7.840;2022-10-17T13:50:19;0.97;;;0.97;;
1224;SDS011;602;48.000;7.840;2022-10-17T13:53:04;1.60;;;1.37;;
1224;SDS011;602;48.000;7.840;2022-10-17T13:55:54;0.70;;;0.70;;
1224;SDS011;602;48.000;7.840;2022-10-17T13:58:25;1.73;;;1.17;;
1224;SDS011;602;48.000;7.840;2022-10-17T14:00:55;1.30;;;1.20;;
1224;SDS011;602;48.000;7.840;2022-10-17T14:03:23;1.37;;;1.27;;
1224;SDS011;602;48.000;7.840;2022-10-17T14:06:04;1.93;;;1.13;;
1224;SDS011;602;48.000;7.840;2022-10-17T14:08:36;1.00;;;1.00;;
1224;SDS011;602;48.000;7.840;2022-10-17T14:11:15;1.20;;;1.10;;
1224;SDS011;602;48.000;7.840;2022-10-17T14:13:50;0.90;;;0.90;;
1224;SDS011;602;48.000;7.840;2022-10-17T14:16:19;1.00;;;0.90;;
1224;SDS011;602;48.000;7.840;2022-10-17T14:18:47;0.80;;;0.80;;
1224;SDS011;602;48.000;7.840;2022-10-17T14:21:19;1.13;;;1.03;;
1224;SDS011;602;48.000;7.840;2022-10-17T14:23:48;1.23;;;1.13;;
1224;SDS011;602;48.000;7.840;2022-10-17T14:26:16;1.17;;;0.93;;
1224;SDS011;602;48.000;7.840;2022-10-17T14:28:46;1.13;;;0.90;;
1224;SDS011;602;48.000;7.840;2022-10-17T14:31:23;1.20;;;1.10;;
1224;SDS011;602;48.000;7.840;2022-10-17T14:33:54;1.03;;;0.90;;
1224;SDS011;602;48.000;7.840;2022-10-17T14:36:32;1.03;;;0.93;;
1224;SDS011;602;48.000;7.840;2022-10-17T14:39:01;1.40;;;1.27;;
1224;SDS011;602;48.000;7.840;2022-10-17T14:41:30;1.00;;;1.00;;
1224;SDS011;602;48.000;7.840;2022-10-17T14:44:00;1.27;;;1.03;;
1224;SDS011;602;48.000;7.840;2022-10-17T14:46:32;1.40;;;1.30;;
1224;SDS011;602;48.000;7.840;2022-10-17T14:49:02;1.20;;;1.10;;
1224;SDS011;602;48.000;7.840;2022-10-17T14:51:31;1.50;;;1.40;;
1224;SDS011;602;48.000;7.840;2022-10-17T14:53:59;0.90;;;0.80;;
1224;SDS011;602;48.000;7.840;2022-10-17T14:56:39;1.00;;;1.00;;
1224;SDS011;602;48.000;7.840;2022-10-17T14:59:07;1.40;;;1.20;;
1224;SDS011;602;48.000;7.840;2022-10-17T15:01:36;2.97;;;1.23;;
1224;SDS011;602;48.000;7.840;2022-10-17T15:04:03;1.10;;;1.00;;
1224;SDS011;602;48.000;7.840;2022-10-17T15:06:30;1.20;;;1.10;;
1224;SDS011;602;48.000;7.840;2022-10-17T15:08:59;1.13;;;1.00;;
1224;SDS011;602;48.000;7.840;2022-10-17T15:11:26;1.20;;;1.10;;
1224;SDS011;602;48.000;7.840;2022-10-17T15:13:53;3.70;;;1.40;;
1224;SDS011;602;48.000;7.840;2022-10-17T15:16:21;1.17;;;1.07;;
1224;SDS011;602;48.000;7.840;2022-10-17T15:18:51;1.63;;;1.53;;
1224;SDS011;602;48.000;7.840;2022-10-17T15:21:19;0.90;;;0.90;;
1224;SDS011;602;48.000;7.840;2022-10-17T15:23:47;2.63;;;1.10;;
1224;SDS011;602;48.000;7.840;2022-10-17T15:26:15;1.07;;;1.00;;
1224;SDS011;602;48.000;7.840;2022-10-17T15:28:44;0.87;;;0.87;;
1224;SDS011;602;48.000;7.840;2022-10-17T15:31:14;1.13;;;1.03;;
1224;SDS011;602;48.000;7.840;2022-10-17T15:33:42;1.00;;;0.97;;
1224;SDS011;602;48.000;7.840;2022-10-17T15:36:18;1.37;;;1.27;;
1224;SDS011;602;48.000;7.840;2022-10-17T15:38:47;0.93;;;0.90;;
1224;SDS011;602;48.000;7.840;2022-10-17T15:41:16;1.20;;;1.20;;
1224;SDS011;602;48.000;7.840;2022-10-17T15:43:43;1.00;;;0.90;;
1224;SDS011;602;48.000;7.840;2022-10-17T15:46:10;1.03;;;1.03;;
1224;SDS011;602;48.000;7.840;2022-10-17T15:48:39;1.10;;;1.00;;
1224;SDS011;602;48.000;7.840;2022-10-17T15:51:06;1.00;;;1.00;;
1224;SDS011;602;48.000;7.840;2022-10-17T15:53:35;1.50;;;1.40;;
1224;SDS011;602;48.000;7.840;2022-10-17T15:56:02;1.27;;;1.00;;
1224;SDS011;602;48.000;7.840;2022-10-17T15:58:31;1.50;;;1.20;;
1224;SDS011;602;48.000;7.840;2022-10-17T16:01:01;1.13;;;0.80;;
1224;SDS011;602;48.000;7.840;2022-10-17T16:03:29;0.80;;;0.80;;
1224;SDS011;602;48.000;7.840;2022-10-17T16:05:56;1.00;;;1.00;;
1224;SDS011;602;48.000;7.840;2022-10-17T16:08:22;1.40;;;1.30;;
1224;SDS011;602;48.000;7.840;2022-10-17T16:10:51;1.20;;;1.10;;